Kingsland, Texas
Current Conditions -  °F | °C
As of 4:55 PM on Tuesday 21 Oct 2014 (Local Time) from KDZB Reporting Station
Clear Clear  
Wind Chill: 79°   Ceiling: Unl
Heat Index: 79°   Visibility: 10mi
Dew Point: 49°   Wind: 5mph
Humidity: 35%   Direction: 120°ESE
Pressure: 30.01"   Gusts: NA
Location:  30.66°N, 98.44°W
Report Text: KDZB 212155Z AUTO 12004KT 10SM CLR 26/09 A3001 RMK AO2 T02590092
Loading
Personal Weather Stations






























Interactive Weather Map New forecast layout! Learn more

10-Day Weather Forecast

Advertisements
Track Severe Weather on mobile